Terminal Aerodrome Forecast
Issued by NWS

Home | Current Version | Previous Version | Text Only | Print | Product List | Glossary On
Versions: 1 2 3 4 5 6 7 8 9 10 11 12 13 14 15
000
FTUS42 TJSJ 190539
TAFKPK
TAF
TKPK 190539Z 1906/2006 09010KT P6SM VCSH FEW022
     FM191430 09012KT P6SM FEW022
     FM192100 07013KT P6SM FEW026
     FM200200 08009KT P6SM VCSH SCT019
      AMD NOT SKED TIL 191100=

USA.gov is the U.S. government's official web portal to all federal, state and local government web resources and services.